»·PEaware :: VRD1907 KLAS-KSFO

VRD1907 :: KLAS-KSFO

FLIGHT INFORMATION

Flight Status: Arrived
Operator:
Virgin America
More flights by this operator :: More flights under this callsign
Pilot: Cullen C. (7783)
Aircraft: AIRBUS A320
(A320)
More flights by this aircraft type
Origin: KLAS McCarran Intl
United States
Destination: KSFO San Francisco Intl
United States
More flights between these airports :: More routes between these airports
Route: +SHEAD1 KENNO RUSME DYAMD3
File this flight plan on PilotEdge
Remarks:
Altitude:
(Current/Filed)
38,000ft
Speed:
(Current/Filed)
450kts
Departed: 05-Dec-17 01:35 PM
Arrived: 05-Dec-17 02:41 PM
Distance/Time
Traveled:
359nm/1:05
Distance/Time
To Go:
Arrived

Flight Plot

Page will automatically refresh every two minutes.

Flight plan parsing failed; only flown route is shown


Map Options




Map Legend


Flown Route
Filed Route
Departure Airport
Arrival Airport
Navaid (VOR, NDB)
Fix

Horizontal Profiles

Position Reports

Time Latitude Longitude Heading Altitude Ground
Speed
05-Dec-17 13:11 36.085434 -115.139110 359 2120ft 0kts
05-Dec-17 13:12 36.085434 -115.139110 0 2120ft 0kts
05-Dec-17 13:13 36.085434 -115.139110 0 2120ft 0kts
05-Dec-17 13:14 36.085434 -115.139110 0 2120ft 0kts
05-Dec-17 13:15 36.085434 -115.139110 0 2120ft 0kts
05-Dec-17 13:16 36.085434 -115.139110 0 2120ft 0kts
05-Dec-17 13:17 36.085434 -115.139110 0 2120ft 0kts
05-Dec-17 13:18 36.085434 -115.139110 0 2120ft 0kts
05-Dec-17 13:19 36.085434 -115.139110 0 2120ft 0kts
05-Dec-17 13:20 36.085434 -115.139110 0 2120ft 0kts
05-Dec-17 13:21 36.085434 -115.139110 0 2120ft 0kts
05-Dec-17 13:22 36.085353 -115.139110 359 2120ft 2kts
05-Dec-17 13:23 36.084757 -115.139094 347 2120ft 2kts
05-Dec-17 13:24 36.084289 -115.138669 298 2120ft 2kts
05-Dec-17 13:25 36.084203 -115.137948 270 2120ft 2kts
05-Dec-17 13:26 36.084203 -115.137758 269 2120ft 0kts
05-Dec-17 13:27 36.084203 -115.138021 270 2120ft 4kts
05-Dec-17 13:28 36.083352 -115.141609 226 2120ft 17kts
05-Dec-17 13:29 36.079086 -115.141641 181 2120ft 6kts
05-Dec-17 13:30 36.078977 -115.141643 180 2120ft 0kts
05-Dec-17 13:31 36.078977 -115.141643 180 2120ft 0kts
05-Dec-17 13:32 36.078967 -115.141643 180 2120ft 0kts
05-Dec-17 13:33 36.077522 -115.143372 276 2120ft 11kts
05-Dec-17 13:34 36.077864 -115.148750 274 2120ft 19kts
05-Dec-17 13:35 36.078006 -115.155579 269 2120ft 19kts
05-Dec-17 13:36 36.078006 -115.162369 264 2120ft 19kts
05-Dec-17 13:37 36.074012 -115.165492 231 2120ft 10kts
05-Dec-17 13:38 36.074122 -115.166715 299 2120ft 9kts
05-Dec-17 13:39 36.075431 -115.166814 24 2120ft 19kts
05-Dec-17 13:40 36.110161 -115.153083 345 3556ft 187kts
05-Dec-17 13:41 36.122135 -115.222074 256 6153ft 260kts
05-Dec-17 13:42 36.091437 -115.299332 206 8986ft 287kts
05-Dec-17 13:43 36.022027 -115.334892 203 9036ft 289kts
05-Dec-17 13:44 35.945939 -115.374041 203 9041ft 304kts
05-Dec-17 13:45 35.886926 -115.436833 271 9149ft 296kts
05-Dec-17 13:46 35.888651 -115.539441 274 11065ft 325kts
05-Dec-17 13:47 35.890905 -115.662565 273 11063ft 371kts
05-Dec-17 13:48 35.892955 -115.790914 273 12895ft 390kts
05-Dec-17 13:49 35.895107 -115.926195 275 15046ft 401kts
05-Dec-17 13:50 35.951336 -116.034699 321 16982ft 387kts
05-Dec-17 13:51 36.030709 -116.126122 322 18505ft 404kts
05-Dec-17 13:52 36.115277 -116.223704 320 19327ft 437kts
05-Dec-17 13:53 36.206152 -116.329007 315 20620ft 453kts
05-Dec-17 13:54 36.296093 -116.433545 312 23024ft 433kts
05-Dec-17 13:55 36.380893 -116.532432 315 25332ft 410kts
05-Dec-17 13:56 36.464207 -116.629794 319 26341ft 418kts
05-Dec-17 13:57 36.547733 -116.727719 318 27341ft 423kts
05-Dec-17 13:58 36.644637 -116.809036 328 28384ft 422kts
05-Dec-17 13:59 36.744362 -116.884915 328 29598ft 419kts
05-Dec-17 14:00 36.842768 -116.959965 327 30849ft 412kts
05-Dec-17 14:01 36.938931 -117.033530 327 32189ft 403kts
05-Dec-17 14:02 37.033111 -117.105772 326 33285ft 396kts
05-Dec-17 14:03 37.124845 -117.176342 326 34221ft 391kts
05-Dec-17 14:04 37.217394 -117.247743 325 34921ft 392kts
05-Dec-17 14:05 37.308499 -117.321504 319 35555ft 390kts
05-Dec-17 14:06 37.390993 -117.409415 317 36147ft 390kts
05-Dec-17 14:07 37.469312 -117.502389 304 36651ft 387kts
05-Dec-17 14:08 37.503464 -117.629525 279 37072ft 392kts
05-Dec-17 14:09 37.514271 -117.763619 274 37231ft 401kts
05-Dec-17 14:10 37.525915 -117.907901 271 36722ft 428kts
05-Dec-17 14:11 37.538092 -118.061090 272 36459ft 450kts
05-Dec-17 14:12 37.550440 -118.219210 272 36476ft 467kts
05-Dec-17 14:13 37.563030 -118.383298 273 36452ft 475kts
05-Dec-17 14:14 37.575487 -118.548876 272 36450ft 477kts
05-Dec-17 14:15 37.587523 -118.711781 271 36516ft 476kts
05-Dec-17 14:16 37.599388 -118.875442 271 36505ft 474kts
05-Dec-17 14:17 37.611132 -119.040623 272 36493ft 474kts
05-Dec-17 14:18 37.622528 -119.204168 272 36497ft 474kts
05-Dec-17 14:19 37.633805 -119.369330 272 36503ft 474kts
05-Dec-17 14:20 37.644853 -119.534556 272 36507ft 474kts
05-Dec-17 14:21 37.655562 -119.698154 271 36391ft 474kts
05-Dec-17 14:22 37.666073 -119.862220 271 36327ft 475kts
05-Dec-17 14:23 37.676518 -120.028930 274 34539ft 483kts
05-Dec-17 14:24 37.686777 -120.196896 277 31909ft 471kts
05-Dec-17 14:25 37.696354 -120.357713 278 28243ft 458kts
05-Dec-17 14:26 37.685586 -120.521969 265 24834ft 464kts
05-Dec-17 14:27 37.667777 -120.672034 265 23876ft 416kts
05-Dec-17 14:28 37.651552 -120.808635 265 22592ft 393kts
05-Dec-17 14:29 37.635287 -120.943802 265 20624ft 388kts
05-Dec-17 14:30 37.617815 -121.076880 263 18665ft 386kts
05-Dec-17 14:31 37.598555 -121.220609 263 16749ft 404kts
05-Dec-17 14:32 37.582396 -121.350828 264 13949ft 365kts
05-Dec-17 14:33 37.568224 -121.474873 264 12018ft 353kts
05-Dec-17 14:34 37.554240 -121.594780 264 10503ft 327kts
05-Dec-17 14:35 37.533638 -121.696107 253 9186ft 291kts
05-Dec-17 14:36 37.510847 -121.791648 253 8056ft 268kts
05-Dec-17 14:37 37.490322 -121.877096 253 7965ft 254kts
05-Dec-17 14:38 37.468367 -121.960143 252 6981ft 252kts
05-Dec-17 14:39 37.471865 -122.026850 299 6352ft 231kts
05-Dec-17 14:40 37.507369 -122.108930 297 4469ft 230kts
05-Dec-17 14:41 37.536267 -122.178542 297 3091ft 210kts
05-Dec-17 14:42 37.556244 -122.226185 298 2371ft 157kts
05-Dec-17 14:43 37.578218 -122.278598 298 1441ft 146kts
05-Dec-17 14:44 37.597046 -122.323468 298 665ft 144kts
05-Dec-17 14:45 37.612574 -122.360447 298 39ft 142kts
05-Dec-17 14:46 37.619677 -122.379266 227 21ft 0kts
05-Dec-17 14:47 37.618187 -122.379683 154 21ft 14kts
05-Dec-17 14:48 37.616439 -122.381863 15 21ft 6kts
05-Dec-17 14:49 37.616758 -122.381713 23 21ft 0kts

Navigation Log

Ident Type
Flight plan parsing failed, navigation log unavailable